Brodhead, Wisconsin
Current Conditions -  °F | °C
As of 1:55 AM on Monday 24 Nov 2014 (Local Time) from KEFT Reporting Station
Moderate Fog Moderate Fog  
Wind Chill: 40°   Ceiling: 300
Heat Index: 45°   Visibility: 0.5mi
Dew Point: 45°   Wind: 8mph
Humidity: 100%   Direction: 270°W
Pressure: 29.07"   Gusts: NA
Location:  42.62°N, 89.38°W
Report Text: KEFT 240755Z AUTO 27007KT 1/2SM FG OVC003 07/07 A2907 RMK AO2
Loading
Personal Weather Stations






























Interactive Weather Map New forecast layout! Learn more

10-Day Weather Forecast

Advertisements
Track Severe Weather on mobile